Time;durP1;ratioP1;P1;durP2;ratioP2;P2;SDS_P1;SDS_P2;PMS_P1;PMS_P2;Temp;Humidity;BMP_temperature;BMP_pressure;BME280_temperature;BME280_humidity;BME280_pressure;Samples;Min_cycle;Max_cycle;Signal;HPM_P1;HPM_P2
2022/05/13 00:01:45;;;;;;;8.20;2.40;;;8.90;1.00;;;8.87;84.22;98804.47;5062498;27;119483;-74
2022/05/13 00:04:15;;;;;;;9.30;3.08;;;8.90;1.00;;;8.87;84.56;98796.34;5060391;27;115597;-76
2022/05/13 00:06:44;;;;;;;8.73;2.67;;;8.80;1.00;;;8.77;84.79;98802.88;5060994;27;130029;-74
2022/05/13 00:09:12;;;;;;;7.15;3.17;;;8.80;1.00;;;8.84;85.04;98810.53;5060446;27;129780;-76
2022/05/13 00:11:41;;;;;;;7.93;3.03;;;8.80;1.00;;;8.80;85.18;98809.56;5060766;27;119362;-75
2022/05/13 00:14:11;;;;;;;6.93;2.85;;;8.80;1.00;;;8.80;85.01;98809.56;5060135;27;115248;-75
2022/05/13 00:16:39;;;;;;;5.47;2.40;;;8.80;1.00;;;8.73;85.60;98815.44;5061530;27;131786;-73
2022/05/13 00:19:10;;;;;;;6.30;2.60;;;8.80;1.00;;;8.76;85.77;98808.59;5061771;27;129393;-75
2022/05/13 00:21:40;;;;;;;10.27;3.60;;;8.80;1.00;;;8.74;85.87;98816.22;5061490;27;119778;-75
2022/05/13 00:24:10;;;;;;;11.07;2.90;;;8.70;1.00;;;8.71;86.08;98824.97;5060964;27;115689;-73
2022/05/13 00:26:38;;;;;;;10.60;3.13;;;8.70;1.00;;;8.71;85.97;98812.25;5060151;27;129970;-78
2022/05/13 00:29:07;;;;;;;7.85;2.70;;;8.70;1.00;;;8.69;86.22;98819.88;5059353;27;129863;-75
2022/05/13 00:31:36;;;;;;;10.90;3.20;;;8.70;1.00;;;8.67;86.25;98807.78;5060068;27;118777;-74
2022/05/13 00:34:04;;;;;;;10.20;3.05;;;8.70;1.00;;;8.62;86.53;98814.16;5061625;27;116236;-78
2022/05/13 00:36:33;;;;;;;9.63;2.95;;;8.70;1.00;;;8.62;86.67;98809.53;5060081;27;129601;-76
2022/05/13 00:39:04;;;;;;;7.13;2.55;;;8.70;1.00;;;8.63;86.79;98811.13;5061215;27;129749;-77
2022/05/13 00:41:32;;;;;;;6.43;2.65;;;8.60;1.00;;;8.57;87.11;98815.09;5062489;27;119054;-73
2022/05/13 00:44:01;;;;;;;8.52;2.83;;;8.60;1.00;;;8.61;87.21;98813.34;5064181;27;114957;-76
2022/05/13 00:46:30;;;;;;;8.30;3.00;;;8.60;1.00;;;8.61;87.07;98812.53;5064288;27;129961;-74
2022/05/13 00:49:04;;;;;;;6.53;2.72;;;8.60;1.00;;;8.56;87.75;98799.19;5063112;27;129565;-74
2022/05/13 00:51:37;;;;;;;8.82;2.97;;;8.50;1.00;;;8.54;87.71;98818.41;5064202;27;119540;-73
2022/05/13 00:54:09;;;;;;;8.05;2.90;;;8.50;1.00;;;8.55;88.09;98802.97;5065688;27;115369;-78
2022/05/13 00:56:40;;;;;;;7.60;2.75;;;8.50;1.00;;;8.55;87.94;98809.19;5063405;27;130081;-77
2022/05/13 00:59:11;;;;;;;12.20;3.10;;;8.50;1.00;;;8.53;87.92;98797.88;5062558;27;129163;-74
2022/05/13 01:01:40;;;;;;;7.22;2.80;;;8.50;1.00;;;8.49;87.85;98804.25;5063229;27;118693;-77
2022/05/13 01:04:12;;;;;;;7.55;3.10;;;8.60;1.00;;;8.57;87.35;98801.56;5064949;27;115661;-75
2022/05/13 01:06:44;;;;;;;9.35;3.20;;;8.60;1.00;;;8.49;87.84;98794.22;5064121;27;129920;-75
2022/05/13 01:09:15;;;;;;;9.15;3.33;;;8.50;1.00;;;8.52;87.83;98793.59;5063843;27;129851;-76
2022/05/13 01:11:46;;;;;;;6.53;2.90;;;8.50;1.00;;;8.53;88.21;98795.19;5063950;27;119426;-76
2022/05/13 01:14:21;;;;;;;8.57;2.72;;;8.40;1.00;;;8.46;88.58;98797.53;5065092;27;115330;-79
2022/05/13 01:19:36;;;;;;;9.00;2.75;;;8.50;1.00;;;8.41;88.44;98792.25;5064927;27;131273;-76
2022/05/13 01:22:18;;;;;;;6.45;2.90;;;8.50;1.00;;;8.40;88.68;98804.22;5062359;27;118856;-75
2022/05/13 01:24:46;;;;;;;7.07;3.10;;;8.50;1.00;;;8.41;88.42;98800.38;5065233;27;115992;-76
2022/05/13 01:27:15;;;;;;;11.80;3.10;;;8.60;1.00;;;8.44;88.28;98787.03;5061620;27;129965;-78
2022/05/13 01:29:43;;;;;;;7.47;3.10;;;8.50;1.00;;;8.39;88.70;98810.72;5063449;27;129373;-76
2022/05/13 01:32:11;;;;;;;11.80;3.17;;;8.50;1.00;;;8.44;88.56;98811.38;5062504;27;119355;-76
2022/05/13 01:34:40;;;;;;;14.52;3.90;;;8.40;1.00;;;8.43;88.53;98815.22;5064938;27;115125;-75
2022/05/13 01:37:08;;;;;;;6.85;2.60;;;8.40;1.00;;;8.39;88.98;98811.50;5063344;27;130238;-78
2022/05/13 01:39:38;;;;;;;11.15;2.90;;;8.40;1.00;;;8.38;89.12;98803.69;5063476;27;129610;-74
2022/05/13 01:42:08;;;;;;;9.23;3.13;;;8.40;1.00;;;8.39;88.81;98800.69;5062603;27;120381;-79
2022/05/13 01:44:36;;;;;;;5.93;2.88;;;8.40;1.00;;;8.37;88.78;98802.13;5063522;27;115752;-75
2022/05/13 01:47:06;;;;;;;9.73;3.03;;;8.50;1.00;;;8.40;88.73;98806.91;5062241;27;130383;-75
2022/05/13 01:49:34;;;;;;;6.85;2.55;;;8.40;1.00;;;8.34;88.91;98808.16;5061348;27;129469;-76
2022/05/13 01:52:03;;;;;;;9.20;2.90;;;8.50;1.00;;;8.38;88.90;98809.09;5063903;27;119618;-74
2022/05/13 01:54:32;;;;;;;5.97;2.63;;;8.40;1.00;;;8.39;88.50;98810.72;5063453;27;115178;-76
2022/05/13 01:57:02;;;;;;;9.73;2.90;;;8.40;1.00;;;8.38;88.59;98819.91;5064406;27;130613;-76
2022/05/13 01:59:30;;;;;;;7.80;3.13;;;8.40;1.00;;;8.44;88.14;98802.47;5063001;27;130153;-74
2022/05/13 02:01:59;;;;;;;12.05;3.20;;;8.40;1.00;;;8.42;87.80;98796.56;5062977;27;118826;-77
2022/05/13 02:04:28;;;;;;;11.05;3.38;;;8.50;1.00;;;8.46;87.84;98805.66;5065030;27;114520;-75
2022/05/13 02:06:57;;;;;;;8.15;2.70;;;8.40;1.00;;;8.48;87.81;98808.03;5062529;27;129690;-75
2022/05/13 02:09:26;;;;;;;11.07;3.03;;;8.30;1.00;;;8.48;87.55;98808.03;5063740;27;129640;-76
2022/05/13 02:11:54;;;;;;;7.93;3.15;;;8.30;1.00;;;8.49;87.41;98815.06;5046271;27;119131;-73
2022/05/13 02:14:24;;;;;;;6.80;2.70;;;8.40;1.00;;;8.44;87.46;98807.88;5062908;27;116214;-73
2022/05/13 02:16:53;;;;;;;8.50;3.25;;;8.30;1.00;;;8.52;86.94;98817.13;5064263;27;129605;-74
2022/05/13 02:19:22;;;;;;;12.30;3.00;;;8.50;1.00;;;8.54;86.64;98815.72;5062691;27;130331;-77
2022/05/13 02:21:50;;;;;;;10.27;3.50;;;8.40;1.00;;;8.56;86.44;98816.19;5063719;27;118515;-74
2022/05/13 02:24:18;;;;;;;8.75;3.03;;;8.40;1.00;;;8.63;85.84;98811.13;5061620;27;114801;-77
2022/05/13 02:26:47;;;;;;;10.32;2.78;;;8.50;1.00;;;8.66;85.59;98814.31;5062246;27;129741;-76
2022/05/13 02:29:15;;;;;;;7.47;2.60;;;8.50;1.00;;;8.67;85.33;98807.78;5061978;27;130608;-74
2022/05/13 02:31:45;;;;;;;10.43;2.50;;;8.50;1.00;;;8.68;84.77;98810.19;5064895;27;118455;-75
2022/05/13 02:34:14;;;;;;;10.82;3.10;;;8.60;1.00;;;8.77;84.97;98812.88;5064115;27;115174;-74
2022/05/13 02:36:42;;;;;;;10.23;2.83;;;8.60;1.00;;;8.81;84.75;98816.56;5061536;27;130046;-72
2022/05/13 02:39:10;;;;;;;12.77;3.45;;;8.50;1.00;;;8.78;84.92;98811.78;5062547;27;129538;-73
2022/05/13 02:41:39;;;;;;;11.73;3.05;;;8.50;1.00;;;8.82;84.85;98818.16;5061484;27;119397;-78
2022/05/13 02:44:08;;;;;;;7.82;2.85;;;8.50;1.00;;;8.78;84.87;98812.56;5062386;27;115305;-73
2022/05/13 02:46:36;;;;;;;8.10;2.58;;;8.50;1.00;;;8.93;84.64;98819.44;5065091;27;129849;-76
2022/05/13 02:49:06;;;;;;;6.82;2.97;;;8.60;1.00;;;8.90;84.52;98814.66;5065263;27;129363;-75
2022/05/13 02:51:34;;;;;;;10.32;2.85;;;8.60;1.00;;;9.02;83.91;98821.34;5065056;27;119443;-74
2022/05/13 02:54:03;;;;;;;7.78;2.65;;;8.60;1.00;;;8.95;83.99;98825.31;5064444;27;115449;-73
2022/05/13 02:56:31;;;;;;;6.78;2.58;;;8.60;1.00;;;8.98;83.88;98816.56;5065394;27;129660;-78
2022/05/13 02:59:00;;;;;;;7.28;2.63;;;8.60;1.00;;;9.00;83.87;98827.88;5063213;27;127393;-76
2022/05/13 03:01:28;;;;;;;9.95;2.83;;;8.60;1.00;;;9.06;83.61;98817.69;5046831;27;118642;-76
2022/05/13 03:03:56;;;;;;;8.90;2.72;;;8.60;1.00;;;9.19;83.15;98815.94;5062634;27;115888;-77
2022/05/13 03:06:27;;;;;;;6.97;2.70;;;8.60;1.00;;;9.10;83.12;98831.38;5060832;27;131728;-75
2022/05/13 03:08:56;;;;;;;7.78;2.63;;;8.70;1.00;;;9.11;82.74;98836.47;5060708;27;129793;-75
2022/05/13 03:11:25;;;;;;;8.30;2.75;;;8.70;1.00;;;9.20;82.75;98828.38;5063327;27;119073;-75
2022/05/13 03:13:54;;;;;;;12.88;3.33;;;8.70;1.00;;;9.28;82.29;98841.09;5062129;27;114888;-74
2022/05/13 03:16:25;;;;;;;7.55;2.70;;;8.70;1.00;;;9.38;81.75;98834.59;5062681;27;129782;-76
2022/05/13 03:18:56;;;;;;;9.57;2.58;;;8.80;1.00;;;9.46;81.79;98819.44;5060792;27;130616;-76
2022/05/13 03:21:27;;;;;;;9.63;2.60;;;8.80;1.00;;;9.64;80.98;98831.84;5061762;27;118877;-75
2022/05/13 03:23:58;;;;;;;9.63;3.00;;;8.90;1.00;;;9.66;80.53;98829.63;5045795;27;114963;-74
2022/05/13 03:26:26;;;;;;;9.30;2.67;;;8.90;1.00;;;9.80;79.56;98824.00;5062525;27;129039;-75
2022/05/13 03:28:55;;;;;;;8.00;2.53;;;8.90;1.00;;;9.76;80.03;98839.31;5061474;27;129784;-75
2022/05/13 03:31:24;;;;;;;9.15;2.63;;;8.90;1.00;;;9.75;79.85;98831.50;5062728;27;118008;-73
2022/05/13 03:33:52;;;;;;;10.25;2.35;;;9.00;1.00;;;9.80;79.74;98839.47;5062346;27;115145;-74
2022/05/13 03:36:20;;;;;;;7.72;2.58;;;9.00;1.00;;;9.85;79.39;98831.19;5061480;27;129985;-76
2022/05/13 03:38:51;;;;;;;9.30;2.67;;;9.00;1.00;;;9.77;79.35;98831.97;5060985;27;129592;-73
2022/05/13 03:41:19;;;;;;;7.95;2.45;;;9.00;1.00;;;9.84;79.54;98840.41;5061159;27;118776;-76
2022/05/13 03:43:48;;;;;;;7.07;2.80;;;9.10;1.00;;;9.88;79.05;98852.22;5061457;27;115952;-78
2022/05/13 03:46:17;;;;;;;7.07;2.50;;;9.00;1.00;;;9.90;79.62;98860.81;5059827;27;129856;-77
2022/05/13 03:48:46;;;;;;;11.75;2.42;;;9.10;1.00;;;9.83;79.05;98847.75;5060217;27;130879;-73
2022/05/13 03:51:14;;;;;;;7.07;2.60;;;9.00;1.00;;;9.91;79.47;98857.00;5038201;27;119573;-75
2022/05/13 03:53:43;;;;;;;6.97;2.50;;;9.10;1.00;;;10.02;78.74;98857.41;5040738;27;116420;-74
2022/05/13 03:56:12;;;;;;;13.13;3.13;;;9.10;1.00;;;9.96;78.69;98859.53;5042539;27;129544;-75
2022/05/13 03:58:42;;;;;;;7.95;2.80;;;9.10;1.00;;;10.06;79.20;98867.28;5039489;27;129559;-72
2022/05/13 04:01:10;;;;;;;6.85;2.85;;;9.10;1.00;;;10.05;78.99;98863.00;5039451;27;119672;-74
2022/05/13 04:03:39;;;;;;;7.47;2.40;;;9.10;1.00;;;10.15;78.66;98870.00;5038787;27;114819;-77
2022/05/13 04:08:59;;;;;;;9.77;2.50;;;9.20;1.00;;;10.01;78.54;98862.03;5041287;27;129140;-73
2022/05/13 04:11:32;;;;;;;7.53;3.35;;;9.10;1.00;;;10.19;78.60;98862.00;5040387;27;119066;-77
2022/05/13 04:16:48;;;;;;;7.50;2.60;;;9.10;1.00;;;10.17;77.98;98869.66;5043648;27;129331;-73
2022/05/13 04:19:18;;;;;;;8.23;2.45;;;9.10;1.00;;;10.29;78.32;98864.34;5041957;27;129521;-75
2022/05/13 04:21:47;;;;;;;8.50;2.92;;;9.30;1.00;;;10.49;77.53;98859.38;5058403;27;118705;-74
2022/05/13 04:24:19;;;;;;;6.20;2.47;;;9.30;1.00;;;10.55;77.70;98866.19;5044047;27;114666;-76
2022/05/13 04:26:49;;;;;;;9.35;2.92;;;9.50;1.00;;;10.51;77.21;98867.97;5042338;27;130373;-74
2022/05/13 04:29:18;;;;;;;7.97;2.75;;;9.50;1.00;;;10.73;76.42;98870.41;5044986;27;128664;-75
2022/05/13 04:31:46;;;;;;;5.53;2.30;;;9.40;1.00;;;10.83;76.06;98879.28;5042328;27;118881;-73
2022/05/13 04:34:15;;;;;;;6.65;2.47;;;9.60;1.00;;;10.95;75.45;98892.97;5044613;27;114827;-75
2022/05/13 04:36:44;;;;;;;5.82;2.10;;;9.60;1.00;;;10.96;74.71;98891.84;5042486;27;129777;-74
2022/05/13 04:39:13;;;;;;;6.93;2.60;;;9.60;1.00;;;11.14;74.33;98898.75;5042726;27;130671;-76
2022/05/13 04:44:29;;;;;;;11.48;2.17;;;9.60;1.00;;;11.21;73.03;98892.00;5042212;27;115575;-75
2022/05/13 04:46:57;;;;;;;5.60;2.13;;;9.80;1.00;;;11.14;73.47;98885.19;5045137;27;129015;-75
2022/05/13 04:49:26;;;;;;;16.23;3.80;;;9.70;1.00;;;11.25;73.44;98901.06;5042370;27;129798;-73
2022/05/13 04:51:55;;;;;;;7.72;2.67;;;9.70;1.00;;;11.13;73.11;98899.88;5042703;27;119408;-74
2022/05/13 04:54:25;;;;;;;7.72;2.35;;;9.60;1.00;;;11.26;73.50;98906.19;5062324;27;114670;-74
2022/05/13 04:56:53;;;;;;;10.55;2.38;;;9.60;1.00;;;11.21;73.29;98906.38;5058632;27;129945;-75
2022/05/13 04:59:22;;;;;;;8.07;2.67;;;9.70;1.00;;;11.21;73.55;98905.59;5043154;27;129633;-79
2022/05/13 05:01:52;;;;;;;5.18;2.20;;;9.70;1.00;;;11.13;73.67;98899.88;5042866;27;119776;-75
2022/05/13 05:04:20;;;;;;;6.82;2.08;;;9.80;1.00;;;11.28;73.14;98900.41;5042857;27;116447;-79
2022/05/13 05:06:48;;;;;;;11.30;2.60;;;9.90;1.00;;;11.49;72.30;98909.38;5042262;27;129896;-76
2022/05/13 05:09:17;;;;;;;8.57;2.40;;;10.00;1.00;;;11.50;72.23;98908.25;5042091;27;129539;-77
2022/05/13 05:11:45;;;;;;;7.95;2.38;;;9.90;1.00;;;11.75;71.20;98919.25;5042788;27;119006;-77
2022/05/13 05:14:14;;;;;;;9.52;2.80;;;10.00;1.00;;;11.67;70.89;98903.78;5044484;27;114992;-78
2022/05/13 05:16:43;;;;;;;12.40;3.40;;;10.00;1.00;;;11.75;70.56;98913.81;5041588;27;130242;-76
2022/05/13 05:19:13;;;;;;;7.78;2.22;;;9.80;1.00;;;11.56;71.31;98910.75;5042510;27;130194;-78
2022/05/13 05:21:41;;;;;;;8.57;3.03;;;9.90;1.00;;;11.51;71.60;98909.84;5042816;27;119334;-75
2022/05/13 05:24:10;;;;;;;9.40;2.22;;;10.20;1.00;;;11.62;71.21;98910.22;5061709;27;115262;-76
2022/05/13 05:26:39;;;;;;;4.90;2.20;;;10.30;1.00;;;11.88;70.04;98918.16;5042466;27;130534;-79
2022/05/13 05:29:07;;;;;;;4.85;2.38;;;10.10;1.00;;;11.90;70.69;98911.59;5042019;27;129652;-75
2022/05/13 05:31:36;;;;;;;5.63;2.20;;;10.40;1.00;;;12.13;70.27;98912.81;5041027;27;119413;-78
2022/05/13 05:34:04;;;;;;;7.70;2.13;;;10.50;1.00;;;12.34;69.50;98917.41;5043155;27;115900;-76
2022/05/13 05:36:35;;;;;;;6.38;2.38;;;10.60;1.00;;;12.24;68.30;98913.19;5041681;27;129851;-76
2022/05/13 05:39:04;;;;;;;6.13;2.13;;;10.60;1.00;;;12.23;68.85;98919.75;5042215;27;129970;-78
2022/05/13 05:41:32;;;;;;;8.50;2.58;;;10.70;1.00;;;12.30;69.28;98927.38;5043970;27;118824;-75
2022/05/13 05:44:01;;;;;;;8.48;2.42;;;10.80;1.00;;;12.63;68.49;98919.13;5042626;27;114716;-76
2022/05/13 05:46:29;;;;;;;7.32;2.38;;;10.90;1.00;;;12.70;67.82;98926.72;5042706;27;131077;-76
2022/05/13 05:48:58;;;;;;;6.90;2.53;;;10.70;1.00;;;12.68;67.48;98931.72;5059919;27;130608;-74
2022/05/13 05:51:26;;;;;;;5.10;2.30;;;10.80;1.00;;;12.58;67.43;98932.97;5061943;27;118898;-77
2022/05/13 05:59:28;;;;;;;16.47;3.20;;;11.10;1.00;;;12.68;67.33;98939.91;5042899;27;129919;-76
2022/05/13 06:01:56;;;;;;;5.68;2.17;;;11.10;1.00;;;12.94;66.50;98929.47;5048987;27;118951;-76
2022/05/13 06:04:25;;;;;;;11.73;2.90;;;11.10;1.00;;;13.07;66.10;98940.34;5045167;27;115245;-77
2022/05/13 06:06:53;;;;;;;7.55;2.65;;;11.40;1.00;;;13.06;65.68;98939.56;5041879;27;129820;-76
2022/05/13 06:09:23;;;;;;;8.85;2.33;;;11.10;1.00;;;13.28;65.46;98948.41;5041385;27;129763;-79
2022/05/13 06:11:51;;;;;;;7.80;2.63;;;11.40;1.00;;;13.18;65.02;98946.13;5041842;27;118947;-79
2022/05/13 06:14:20;;;;;;;6.80;2.40;;;11.30;1.00;;;13.06;66.23;98952.41;5041787;27;115096;-75
2022/05/13 06:16:48;;;;;;;6.22;2.00;;;11.50;1.00;;;13.04;65.44;98941.84;5042224;27;128879;-76
2022/05/13 06:19:17;;;;;;;7.68;2.20;;;11.50;1.00;;;12.98;65.04;98950.56;5042854;27;128341;-74
2022/05/13 06:21:45;;;;;;;13.70;2.83;;;11.60;1.00;;;12.94;65.61;98953.97;5041639;27;118686;-75
2022/05/13 06:24:14;;;;;;;7.22;2.03;;;11.50;1.00;;;13.24;64.03;98945.56;5040722;27;115989;-74
2022/05/13 06:26:44;;;;;;;6.88;2.08;;;11.70;1.00;;;13.47;64.41;98939.66;5042163;27;130039;-77
2022/05/13 06:29:13;;;;;;;6.65;2.45;;;11.80;1.00;;;13.68;64.01;98949.59;5040540;27;129488;-78
2022/05/13 06:31:42;;;;;;;7.35;2.85;;;12.00;1.00;;;13.80;62.85;98952.28;5044188;27;118448;-77
2022/05/13 06:34:11;;;;;;;6.70;2.45;;;12.20;1.00;;;14.06;61.39;98948.34;5041609;27;115294;-76
2022/05/13 06:36:40;;;;;;;6.65;2.28;;;12.30;1.00;;;14.12;60.23;98952.41;5042726;27;129438;-78
2022/05/13 06:39:10;;;;;;;6.70;2.10;;;12.20;1.00;;;14.06;60.93;98948.34;5040379;27;129785;-76
2022/05/13 06:41:40;;;;;;;9.20;2.30;;;12.20;1.00;;;14.32;60.48;98935.00;5041045;27;118915;-77
2022/05/13 06:44:11;;;;;;;8.95;2.63;;;12.40;1.00;;;14.47;60.19;98935.38;5041177;27;115098;-77
2022/05/13 06:46:42;;;;;;;6.90;2.15;;;12.50;1.00;;;14.67;59.70;98939.81;5039778;27;130237;-76
2022/05/13 06:49:12;;;;;;;8.00;1.90;;;12.60;1.00;;;14.66;58.03;98942.88;5044052;27;129049;-76
2022/05/13 06:51:41;;;;;;;12.20;3.15;;;12.30;1.00;;;14.48;58.14;98939.69;5040401;27;118897;-73
2022/05/13 06:54:13;;;;;;;9.40;2.10;;;12.80;1.00;;;14.47;57.89;98935.38;5039769;27;115431;-75
2022/05/13 06:56:42;;;;;;;6.70;2.10;;;12.80;1.00;;;14.52;57.29;98943.28;5040000;27;130718;-78
2022/05/13 06:59:12;;;;;;;6.55;2.00;;;12.60;1.00;;;14.58;58.12;98947.34;5040632;27;129601;-74
2022/05/13 07:01:41;;;;;;;6.90;1.95;;;12.80;1.00;;;14.82;56.67;98945.59;5052630;27;118927;-76
2022/05/13 07:04:09;;;;;;;8.73;2.10;;;12.80;1.00;;;14.72;56.64;98931.38;5060052;27;114016;-78
2022/05/13 07:06:39;;;;;;;6.40;1.80;;;13.10;1.00;;;14.91;55.75;98944.28;5059316;27;130005;-75
2022/05/13 07:09:07;;;;;;;4.95;1.90;;;13.00;1.00;;;15.18;56.61;98941.00;5059000;27;129429;-79
2022/05/13 07:11:36;;;;;;;5.63;2.00;;;13.40;1.00;;;15.21;56.08;98941.06;5059565;27;119474;-76
2022/05/13 07:14:04;;;;;;;8.02;1.83;;;13.30;1.00;;;15.52;54.36;98933.13;5059043;27;116731;-79
2022/05/13 07:16:34;;;;;;;8.27;2.30;;;13.50;1.00;;;15.69;53.78;98927.25;5059792;27;130158;-78
2022/05/13 07:19:03;;;;;;;7.85;1.67;;;13.60;1.00;;;15.53;54.26;98929.25;5058473;27;129669;-79
2022/05/13 07:21:31;;;;;;;4.18;1.60;;;13.80;1.00;;;15.25;53.36;98931.03;5058915;27;118925;-78
2022/05/13 07:24:00;;;;;;;3.45;1.80;;;13.10;1.00;;;15.47;54.02;98926.00;5060566;27;115283;-79
2022/05/13 07:26:29;;;;;;;9.32;1.80;;;13.40;1.00;;;15.70;52.40;98915.16;5058429;27;130526;-73
2022/05/13 07:28:58;;;;;;;5.13;1.90;;;13.50;1.00;;;15.90;52.01;98923.41;5060665;27;129481;-79
2022/05/13 07:31:26;;;;;;;11.85;2.47;;;13.90;1.00;;;15.99;51.53;98929.44;5059459;27;119232;-78
2022/05/13 07:33:56;;;;;;;8.35;1.90;;;14.00;1.00;;;15.93;52.70;98920.72;5062372;27;113997;-80
2022/05/13 07:36:25;;;;;;;6.65;2.15;;;14.00;1.00;;;16.13;50.47;98918.75;5060897;27;130464;-77
2022/05/13 07:41:39;;;;;;;11.43;2.20;;;14.50;1.00;;;16.51;50.20;98911.59;5060842;27;119142;-78
2022/05/13 07:44:07;;;;;;;10.88;2.10;;;14.10;1.00;;;16.18;50.21;98912.97;5061884;27;114850;-77
2022/05/13 07:46:36;;;;;;;5.45;1.23;;;14.30;1.00;;;16.23;48.21;98906.41;5059390;27;129864;-77
2022/05/13 07:49:06;;;;;;;6.65;1.60;;;14.60;1.00;;;16.50;48.20;98904.53;5059600;27;130131;-75
2022/05/13 07:51:35;;;;;;;5.90;1.63;;;14.80;1.00;;;16.59;48.34;98911.72;5062842;27;118913;-78
2022/05/13 07:54:04;;;;;;;2.38;1.23;;;14.30;1.00;;;16.65;46.62;98904.78;5048547;27;113700;-76
2022/05/13 07:56:33;;;;;;;4.70;1.42;;;14.20;1.00;;;16.39;47.98;98914.50;5064957;27;129662;-76
2022/05/13 07:59:02;;;;;;;3.55;1.33;;;14.40;1.00;;;16.84;48.18;98891.00;5062893;27;130209;-75
2022/05/13 08:01:31;;;;;;;3.65;1.33;;;14.70;1.00;;;16.85;47.00;98898.03;5063160;27;119125;-77
2022/05/13 08:04:00;;;;;;;4.47;1.55;;;14.30;1.00;;;16.56;46.81;98901.50;5063843;27;115444;-78
2022/05/13 08:06:30;;;;;;;5.90;1.75;;;14.00;1.00;;;16.71;47.03;98897.81;5063619;27;130756;-75
2022/05/13 08:08:59;;;;;;;4.25;1.55;;;14.40;1.00;;;16.80;47.77;98884.66;5064125;27;130812;-78
2022/05/13 08:11:30;;;;;;;6.18;1.70;;;14.70;1.00;;;16.95;48.05;98890.38;5064104;27;118434;-76
2022/05/13 08:13:58;;;;;;;5.22;1.85;;;15.10;1.00;;;17.29;47.44;98898.69;5063970;27;115004;-76
2022/05/13 08:16:29;;;;;;;4.65;1.50;;;15.20;1.00;;;17.52;45.62;98895.88;5048444;27;129142;-75
2022/05/13 08:18:59;;;;;;;7.88;1.80;;;15.00;1.00;;;17.36;46.74;98885.09;5062170;27;129212;-76
2022/05/13 08:21:30;;;;;;;4.70;1.60;;;14.80;1.00;;;17.75;46.12;98899.28;5063737;27;118534;-79
2022/05/13 08:23:59;;;;;;;5.05;1.60;;;14.90;1.00;;;17.70;45.02;98896.06;5063401;27;115204;-76
2022/05/13 08:26:28;;;;;;;3.63;1.20;;;15.20;1.00;;;17.65;44.93;98905.41;5064847;27;130178;-76
2022/05/13 08:28:56;;;;;;;4.63;1.70;;;14.80;1.00;;;17.14;46.78;98893.03;5062559;27;130160;-79
2022/05/13 08:31:25;;;;;;;7.57;1.88;;;14.90;1.00;;;17.38;47.21;98891.00;5063365;27;119083;-77
2022/05/13 08:33:53;;;;;;;7.22;1.83;;;15.10;1.00;;;17.85;46.84;98891.53;5063796;27;115118;-76
2022/05/13 08:36:22;;;;;;;7.32;1.52;;;15.60;1.00;;;17.70;46.06;98890.59;5062155;27;130425;-76
2022/05/13 08:38:52;;;;;;;4.20;1.70;;;15.30;1.00;;;17.72;45.73;98893.75;5063759;27;129657;-77
2022/05/13 08:41:35;;;;;;;14.38;2.30;;;15.50;1.00;;;17.17;46.74;98886.81;5062700;27;118879;-74
2022/05/13 08:44:09;;;;;;;7.68;2.47;;;15.10;1.00;;;17.50;47.02;98885.28;5062771;27;114876;-76
2022/05/13 08:46:43;;;;;;;3.75;1.73;;;15.20;1.00;;;17.44;46.33;98889.50;5062741;27;129831;-76
2022/05/13 08:49:30;;;;;;;4.78;1.60;;;15.40;1.00;;;17.31;47.12;98890.88;5060004;27;130383;-81
2022/05/13 08:55:09;;;;;;;3.33;1.13;;;15.20;1.00;;;17.93;43.41;98883.03;5046742;27;115868;-79
2022/05/13 08:57:42;;;;;;;4.88;1.58;;;15.10;99.90;;;17.61;44.66;98896.38;5044712;27;130270;-79
2022/05/13 09:00:18;;;;;;;5.93;1.85;;;15.10;99.90;;;17.94;45.11;98883.84;5063198;27;129257;-73
2022/05/13 09:02:57;;;;;;;5.30;1.20;;;15.40;1.00;;;17.95;45.20;98897.19;5063343;27;117485;-78
2022/05/13 09:05:29;;;;;;;5.88;1.58;;;16.00;99.90;;;17.56;45.94;98872.81;5061830;27;115612;-79
2022/05/13 09:08:00;;;;;;;5.55;1.60;;;15.60;99.90;;;17.53;45.64;98876.28;5077432;27;130694;-80
2022/05/13 09:10:30;;;;;;;5.22;1.63;;;15.60;99.90;;;17.58;45.09;98873.22;5062326;27;129382;-75
2022/05/13 09:13:09;;;;;;;6.50;1.50;;;15.10;99.90;;;17.32;45.21;98873.28;5063708;27;120426;-78
2022/05/13 09:15:44;;;;;;;3.53;1.33;;;15.30;99.90;;;17.36;44.42;98865.91;5079011;27;115440;-76
2022/05/13 09:18:22;;;;;;;2.65;1.23;;;15.30;99.90;;;17.70;43.82;98868.63;5061830;27;130734;-77
2022/05/13 09:20:55;;;;;;;5.80;1.50;;;15.80;99.90;;;17.69;43.91;98870.59;5061955;27;129943;-79
2022/05/13 09:23:25;;;;;;;6.03;1.98;;;15.80;99.90;;;17.84;44.85;98868.81;5060998;27;118760;-74
2022/05/13 09:26:05;;;;;;;5.35;1.50;;;16.00;99.90;;;17.82;43.49;98879.34;5062465;27;115101;-73
2022/05/13 09:28:36;;;;;;;3.65;1.60;;;15.90;99.90;;;18.35;42.83;98875.59;5064069;27;128762;-81
2022/05/13 09:31:19;;;;;;;4.78;1.35;;;16.10;99.90;;;17.83;42.90;98867.22;5062067;27;129490;-72
2022/05/13 09:33:49;;;;;;;5.22;2.10;;;16.00;99.90;;;18.04;44.01;98866.66;5062520;27;119237;-78
2022/05/13 09:36:36;;;;;;;4.10;1.30;;;16.00;99.90;;;18.00;43.82;98867.81;5060619;27;115089;-74
2022/05/13 09:39:19;;;;;;;;;;;16.00;99.90;;;18.58;42.89;98867.16;5062152;27;130773;-75
2022/05/13 09:41:52;;;;;;;5.30;1.23;;;16.40;99.90;;;19.13;42.08;98873.84;5047643;27;129679;-75
2022/05/13 09:44:23;;;;;;;7.50;1.95;;;16.40;99.90;;;19.27;40.28;98873.91;5042922;27;118512;-77
2022/05/13 09:47:07;;;;;;;7.25;1.65;;;16.40;99.90;;;18.59;41.42;98863.25;5042029;27;115550;-77
2022/05/13 09:49:40;;;;;;;3.95;1.70;;;16.10;99.90;;;18.23;42.53;98862.94;5074080;27;130853;-73
2022/05/13 09:52:12;;;;;;;7.00;2.30;;;16.10;99.90;;;18.39;42.42;98851.69;5043742;27;130329;-74
2022/05/13 09:54:43;;;;;;;4.68;1.35;;;16.30;99.90;;;18.83;42.28;98858.31;5040791;27;118833;-76
2022/05/13 09:57:21;;;;;;;6.45;1.80;;;16.50;99.90;;;19.36;41.00;98865.31;5041233;27;115273;-76
2022/05/13 09:59:55;;;;;;;4.38;1.67;;;16.70;99.90;;;19.26;40.92;98855.84;5040861;27;129937;-74
2022/05/13 10:02:32;;;;;;;7.00;1.55;;;16.80;99.90;;;19.62;40.73;98847.72;5040892;27;130546;-76
2022/05/13 10:05:16;;;;;;;4.60;1.40;;;16.80;99.90;;;19.21;40.30;98861.69;5042097;27;118269;-75
2022/05/13 10:07:59;;;;;;;6.07;2.00;;;16.30;99.90;;;18.78;41.77;98858.66;5040860;27;115123;-73
2022/05/13 10:16:18;;;;;;;4.18;1.40;;;15.90;99.90;;;18.08;43.73;98875.75;5040735;27;119070;-72
2022/05/13 10:18:53;;;;;;;6.25;1.40;;;16.00;99.90;;;17.93;43.88;98869.31;5040576;27;114903;-78
2022/05/13 10:21:28;;;;;;;5.10;1.58;;;15.80;99.90;;;18.22;42.64;98852.34;5040737;27;130713;-74
2022/05/13 10:24:01;;;;;;;4.28;1.40;;;16.40;99.90;;;19.31;40.30;98847.22;5049552;27;128695;-78
2022/05/13 10:26:36;;;;;;;4.18;1.27;;;16.70;99.90;;;19.98;40.62;98850.59;5045175;27;120652;-75
2022/05/13 10:29:14;;;;;;;3.60;1.30;;;17.60;99.90;;;20.06;38.31;98846.66;5040830;27;114943;-79
2022/05/13 10:31:46;;;;;;;5.28;1.40;;;16.70;99.90;;;19.83;40.85;98854.50;5044106;27;130554;-77
2022/05/13 10:34:25;;;;;;;4.40;1.40;;;17.20;99.90;;;19.26;39.55;98855.84;5041733;27;128822;-78
2022/05/13 10:37:04;;;;;;;5.13;1.60;;;17.00;99.90;;;18.71;40.11;98847.63;5040461;27;119300;-76
2022/05/13 10:39:44;;;;;;;4.97;1.48;;;16.70;99.90;;;18.28;41.68;98846.13;5040712;27;115698;-78
2022/05/13 10:42:19;;;;;;;4.47;1.48;;;16.50;99.90;;;18.10;41.33;98854.19;5038908;27;130436;-79
2022/05/13 10:44:56;;;;;;;4.18;1.20;;;16.30;99.90;;;18.54;41.97;98855.34;5039951;27;129635;-76
2022/05/13 10:47:31;;;;;;;6.63;1.50;;;16.60;99.90;;;18.75;41.17;98860.22;5040266;27;118874;-74
2022/05/13 10:49:59;;;;;;;6.07;1.80;;;16.50;99.90;;;18.98;40.27;98861.94;5040711;27;115729;-78
2022/05/13 10:52:45;;;;;;;5.68;1.33;;;16.30;99.90;;;18.76;40.50;98872.00;5040194;27;130074;-75
2022/05/13 10:55:26;;;;;;;4.22;1.40;;;16.50;99.90;;;18.73;41.33;98857.06;5039393;27;129769;-74
2022/05/13 10:58:28;;;;;;;4.55;1.33;;;16.50;99.90;;;18.97;41.62;98850.16;5040115;27;118808;-71
2022/05/13 11:01:14;;;;;;;4.10;1.27;;;16.50;99.90;;;18.92;41.12;98842.28;5038477;27;115173;-74
2022/05/13 11:03:59;;;;;;;2.85;1.48;;;16.50;99.90;;;18.97;41.27;98844.69;5039809;27;130671;-81
2022/05/13 11:06:48;;;;;;;6.28;1.63;;;16.40;99.90;;;19.28;41.56;98847.19;5039381;27;129595;-74